sensor_id;sensor_type;location;lat;lon;timestamp;P1;durP1;ratioP1;P2;durP2;ratioP2
47021;SDS011;32779;52.264;6.154;2023-02-26T00:01:40;6.53;;;2.10;;
47021;SDS011;32779;52.264;6.154;2023-02-26T00:04:07;8.93;;;2.63;;
47021;SDS011;32779;52.264;6.154;2023-02-26T00:06:35;9.00;;;2.50;;
47021;SDS011;32779;52.264;6.154;2023-02-26T00:09:02;11.50;;;2.63;;
47021;SDS011;32779;52.264;6.154;2023-02-26T00:11:29;11.90;;;2.33;;
47021;SDS011;32779;52.264;6.154;2023-02-26T00:13:55;12.98;;;2.42;;
47021;SDS011;32779;52.264;6.154;2023-02-26T00:16:28;9.90;;;2.60;;
47021;SDS011;32779;52.264;6.154;2023-02-26T00:18:57;11.00;;;2.35;;
47021;SDS011;32779;52.264;6.154;2023-02-26T00:21:24;8.75;;;1.92;;
47021;SDS011;32779;52.264;6.154;2023-02-26T00:23:55;9.55;;;2.17;;
47021;SDS011;32779;52.264;6.154;2023-02-26T00:26:22;9.77;;;2.38;;
47021;SDS011;32779;52.264;6.154;2023-02-26T00:28:49;8.70;;;2.40;;
47021;SDS011;32779;52.264;6.154;2023-02-26T00:31:15;5.82;;;2.28;;
47021;SDS011;32779;52.264;6.154;2023-02-26T00:33:42;14.02;;;2.53;;
47021;SDS011;32779;52.264;6.154;2023-02-26T00:36:19;8.43;;;2.10;;
47021;SDS011;32779;52.264;6.154;2023-02-26T00:41:56;11.93;;;2.17;;
47021;SDS011;32779;52.264;6.154;2023-02-26T00:44:22;11.55;;;2.40;;
47021;SDS011;32779;52.264;6.154;2023-02-26T00:52:14;8.68;;;1.95;;
47021;SDS011;32779;52.264;6.154;2023-02-26T00:54:47;12.55;;;1.90;;
47021;SDS011;32779;52.264;6.154;2023-02-26T00:57:13;9.82;;;2.15;;
47021;SDS011;32779;52.264;6.154;2023-02-26T00:59:38;10.60;;;1.98;;
47021;SDS011;32779;52.264;6.154;2023-02-26T01:02:04;9.83;;;1.70;;
47021;SDS011;32779;52.264;6.154;2023-02-26T01:04:29;6.82;;;1.95;;
47021;SDS011;32779;52.264;6.154;2023-02-26T01:06:55;7.47;;;1.90;;
47021;SDS011;32779;52.264;6.154;2023-02-26T01:11:47;7.20;;;1.80;;
47021;SDS011;32779;52.264;6.154;2023-02-26T01:22:09;8.95;;;1.85;;
47021;SDS011;32779;52.264;6.154;2023-02-26T01:24:39;15.93;;;1.65;;
47021;SDS011;32779;52.264;6.154;2023-02-26T01:27:05;4.47;;;2.13;;
47021;SDS011;32779;52.264;6.154;2023-02-26T01:29:31;5.50;;;1.67;;
47021;SDS011;32779;52.264;6.154;2023-02-26T01:32:00;7.25;;;1.65;;
47021;SDS011;32779;52.264;6.154;2023-02-26T01:34:41;17.25;;;2.08;;
47021;SDS011;32779;52.264;6.154;2023-02-26T01:43:11;5.78;;;1.75;;
47021;SDS011;32779;52.264;6.154;2023-02-26T01:45:51;5.97;;;1.50;;
47021;SDS011;32779;52.264;6.154;2023-02-26T01:48:33;10.23;;;2.00;;
47021;SDS011;32779;52.264;6.154;2023-02-26T01:51:02;5.93;;;1.33;;
47021;SDS011;32779;52.264;6.154;2023-02-26T01:53:28;7.75;;;2.08;;
47021;SDS011;32779;52.264;6.154;2023-02-26T01:56:02;10.55;;;1.80;;
47021;SDS011;32779;52.264;6.154;2023-02-26T01:58:34;13.82;;;1.90;;
47021;SDS011;32779;52.264;6.154;2023-02-26T02:01:05;6.75;;;1.70;;
47021;SDS011;32779;52.264;6.154;2023-02-26T02:03:32;9.65;;;1.60;;
47021;SDS011;32779;52.264;6.154;2023-02-26T02:06:07;11.88;;;1.55;;
47021;SDS011;32779;52.264;6.154;2023-02-26T02:08:36;5.40;;;1.38;;
47021;SDS011;32779;52.264;6.154;2023-02-26T02:11:03;9.23;;;1.83;;
47021;SDS011;32779;52.264;6.154;2023-02-26T02:13:55;8.00;;;1.50;;
47021;SDS011;32779;52.264;6.154;2023-02-26T02:16:56;9.05;;;1.60;;
47021;SDS011;32779;52.264;6.154;2023-02-26T02:24:53;8.25;;;1.30;;
47021;SDS011;32779;52.264;6.154;2023-02-26T02:27:38;10.90;;;2.22;;
47021;SDS011;32779;52.264;6.154;2023-02-26T02:30:32;5.45;;;1.20;;
47021;SDS011;32779;52.264;6.154;2023-02-26T02:33:04;8.77;;;1.20;;
47021;SDS011;32779;52.264;6.154;2023-02-26T02:35:40;11.82;;;1.35;;
47021;SDS011;32779;52.264;6.154;2023-02-26T02:38:20;4.22;;;1.10;;
47021;SDS011;32779;52.264;6.154;2023-02-26T02:40:51;7.38;;;1.20;;
47021;SDS011;32779;52.264;6.154;2023-02-26T02:43:27;5.10;;;1.00;;
47021;SDS011;32779;52.264;6.154;2023-02-26T02:46:01;8.20;;;1.20;;
47021;SDS011;32779;52.264;6.154;2023-02-26T02:48:34;10.77;;;1.67;;
47021;SDS011;32779;52.264;6.154;2023-02-26T02:51:10;8.32;;;1.73;;
47021;SDS011;32779;52.264;6.154;2023-02-26T02:53:46;4.25;;;0.95;;
47021;SDS011;32779;52.264;6.154;2023-02-26T02:56:24;12.02;;;1.50;;
47021;SDS011;32779;52.264;6.154;2023-02-26T02:59:00;9.00;;;1.15;;
47021;SDS011;32779;52.264;6.154;2023-02-26T03:01:27;5.28;;;1.50;;
47021;SDS011;32779;52.264;6.154;2023-02-26T03:04:04;8.20;;;1.30;;
47021;SDS011;32779;52.264;6.154;2023-02-26T03:06:33;10.65;;;1.00;;
47021;SDS011;32779;52.264;6.154;2023-02-26T03:11:25;11.02;;;1.42;;
47021;SDS011;32779;52.264;6.154;2023-02-26T03:13:51;5.50;;;1.20;;
47021;SDS011;32779;52.264;6.154;2023-02-26T03:22:02;5.72;;;1.08;;
47021;SDS011;32779;52.264;6.154;2023-02-26T03:29:58;5.18;;;1.15;;
47021;SDS011;32779;52.264;6.154;2023-02-26T03:32:30;5.80;;;1.52;;
47021;SDS011;32779;52.264;6.154;2023-02-26T03:35:52;8.55;;;2.45;;
47021;SDS011;32779;52.264;6.154;2023-02-26T03:37:58;8.02;;;1.15;;
47021;SDS011;32779;52.264;6.154;2023-02-26T03:40:33;4.05;;;1.05;;
47021;SDS011;32779;52.264;6.154;2023-02-26T03:43:21;9.85;;;1.50;;
47021;SDS011;32779;52.264;6.154;2023-02-26T03:45:56;6.45;;;1.00;;
47021;SDS011;32779;52.264;6.154;2023-02-26T03:48:26;4.35;;;1.00;;
47021;SDS011;32779;52.264;6.154;2023-02-26T03:50:56;9.85;;;1.58;;
47021;SDS011;32779;52.264;6.154;2023-02-26T03:53:26;8.98;;;1.33;;
47021;SDS011;32779;52.264;6.154;2023-02-26T03:58:35;6.50;;;1.15;;
47021;SDS011;32779;52.264;6.154;2023-02-26T04:01:06;5.47;;;1.30;;
47021;SDS011;32779;52.264;6.154;2023-02-26T04:03:39;9.68;;;1.30;;
47021;SDS011;32779;52.264;6.154;2023-02-26T04:06:13;5.90;;;0.93;;
47021;SDS011;32779;52.264;6.154;2023-02-26T04:08:39;5.18;;;1.00;;
47021;SDS011;32779;52.264;6.154;2023-02-26T04:13:34;9.68;;;1.20;;
47021;SDS011;32779;52.264;6.154;2023-02-26T04:15:59;9.25;;;1.10;;
47021;SDS011;32779;52.264;6.154;2023-02-26T04:18:25;6.85;;;1.10;;
47021;SDS011;32779;52.264;6.154;2023-02-26T04:20:51;5.43;;;0.98;;
47021;SDS011;32779;52.264;6.154;2023-02-26T04:23:16;5.68;;;1.13;;
47021;SDS011;32779;52.264;6.154;2023-02-26T04:25:43;6.32;;;1.85;;
47021;SDS011;32779;52.264;6.154;2023-02-26T04:28:09;8.98;;;1.63;;
47021;SDS011;32779;52.264;6.154;2023-02-26T04:30:35;6.82;;;1.20;;
47021;SDS011;32779;52.264;6.154;2023-02-26T04:33:01;11.65;;;1.33;;
47021;SDS011;32779;52.264;6.154;2023-02-26T04:35:27;5.10;;;1.00;;
47021;SDS011;32779;52.264;6.154;2023-02-26T04:37:53;4.75;;;0.70;;
47021;SDS011;32779;52.264;6.154;2023-02-26T04:40:18;6.30;;;1.15;;
47021;SDS011;32779;52.264;6.154;2023-02-26T04:42:44;6.00;;;1.13;;
47021;SDS011;32779;52.264;6.154;2023-02-26T04:45:10;9.90;;;1.35;;
47021;SDS011;32779;52.264;6.154;2023-02-26T04:47:35;6.22;;;1.10;;
47021;SDS011;32779;52.264;6.154;2023-02-26T04:50:01;5.28;;;0.90;;
47021;SDS011;32779;52.264;6.154;2023-02-26T04:52:27;7.00;;;0.90;;
47021;SDS011;32779;52.264;6.154;2023-02-26T04:54:53;8.95;;;0.90;;
47021;SDS011;32779;52.264;6.154;2023-02-26T04:57:19;3.28;;;0.93;;
47021;SDS011;32779;52.264;6.154;2023-02-26T04:59:44;9.50;;;1.00;;
47021;SDS011;32779;52.264;6.154;2023-02-26T05:02:10;14.63;;;1.15;;
47021;SDS011;32779;52.264;6.154;2023-02-26T05:04:35;9.32;;;1.52;;
47021;SDS011;32779;52.264;6.154;2023-02-26T05:07:01;10.80;;;0.98;;
47021;SDS011;32779;52.264;6.154;2023-02-26T05:09:27;4.00;;;0.95;;
47021;SDS011;32779;52.264;6.154;2023-02-26T05:11:52;9.52;;;1.15;;
47021;SDS011;32779;52.264;6.154;2023-02-26T05:14:18;2.95;;;0.70;;
47021;SDS011;32779;52.264;6.154;2023-02-26T05:16:43;8.40;;;1.20;;
47021;SDS011;32779;52.264;6.154;2023-02-26T05:19:09;12.13;;;1.30;;
47021;SDS011;32779;52.264;6.154;2023-02-26T05:21:35;7.50;;;1.13;;
47021;SDS011;32779;52.264;6.154;2023-02-26T05:24:01;5.35;;;1.30;;
47021;SDS011;32779;52.264;6.154;2023-02-26T05:26:26;5.80;;;1.10;;
47021;SDS011;32779;52.264;6.154;2023-02-26T05:28:52;7.15;;;1.02;;
47021;SDS011;32779;52.264;6.154;2023-02-26T05:31:18;2.15;;;0.77;;
47021;SDS011;32779;52.264;6.154;2023-02-26T05:33:43;3.97;;;0.93;;
47021;SDS011;32779;52.264;6.154;2023-02-26T05:36:09;4.93;;;1.15;;
47021;SDS011;32779;52.264;6.154;2023-02-26T05:38:35;5.95;;;0.90;;
47021;SDS011;32779;52.264;6.154;2023-02-26T05:41:01;4.80;;;1.10;;
47021;SDS011;32779;52.264;6.154;2023-02-26T05:43:26;6.95;;;1.10;;
47021;SDS011;32779;52.264;6.154;2023-02-26T05:45:53;7.35;;;0.98;;
47021;SDS011;32779;52.264;6.154;2023-02-26T05:48:19;3.65;;;0.88;;
47021;SDS011;32779;52.264;6.154;2023-02-26T05:50:45;7.47;;;0.90;;
47021;SDS011;32779;52.264;6.154;2023-02-26T05:53:13;6.00;;;0.70;;
47021;SDS011;32779;52.264;6.154;2023-02-26T05:55:38;7.28;;;1.23;;
47021;SDS011;32779;52.264;6.154;2023-02-26T05:58:07;7.03;;;1.33;;
47021;SDS011;32779;52.264;6.154;2023-02-26T06:00:33;6.72;;;0.90;;
47021;SDS011;32779;52.264;6.154;2023-02-26T06:03:01;9.40;;;0.98;;
47021;SDS011;32779;52.264;6.154;2023-02-26T06:05:27;5.53;;;1.08;;
47021;SDS011;32779;52.264;6.154;2023-02-26T06:07:53;5.07;;;0.93;;
47021;SDS011;32779;52.264;6.154;2023-02-26T06:10:18;6.28;;;0.82;;
47021;SDS011;32779;52.264;6.154;2023-02-26T06:12:44;6.80;;;0.82;;
47021;SDS011;32779;52.264;6.154;2023-02-26T06:15:10;5.38;;;0.63;;
47021;SDS011;32779;52.264;6.154;2023-02-26T06:17:36;2.83;;;0.73;;
47021;SDS011;32779;52.264;6.154;2023-02-26T06:20:04;3.58;;;0.90;;
47021;SDS011;32779;52.264;6.154;2023-02-26T06:22:30;12.35;;;1.08;;
47021;SDS011;32779;52.264;6.154;2023-02-26T06:24:56;3.67;;;0.90;;
47021;SDS011;32779;52.264;6.154;2023-02-26T06:27:22;7.22;;;1.73;;
47021;SDS011;32779;52.264;6.154;2023-02-26T06:29:48;7.03;;;1.10;;
47021;SDS011;32779;52.264;6.154;2023-02-26T06:32:14;5.43;;;1.00;;
47021;SDS011;32779;52.264;6.154;2023-02-26T06:34:42;2.67;;;0.80;;
47021;SDS011;32779;52.264;6.154;2023-02-26T06:37:08;7.72;;;1.98;;
47021;SDS011;32779;52.264;6.154;2023-02-26T06:39:33;4.25;;;0.85;;
47021;SDS011;32779;52.264;6.154;2023-02-26T06:41:59;5.57;;;1.00;;
47021;SDS011;32779;52.264;6.154;2023-02-26T06:44:24;3.70;;;0.75;;
47021;SDS011;32779;52.264;6.154;2023-02-26T06:46:50;5.65;;;0.88;;
47021;SDS011;32779;52.264;6.154;2023-02-26T06:49:16;7.28;;;0.90;;
47021;SDS011;32779;52.264;6.154;2023-02-26T06:51:41;4.05;;;0.63;;
47021;SDS011;32779;52.264;6.154;2023-02-26T06:54:07;4.20;;;1.30;;
47021;SDS011;32779;52.264;6.154;2023-02-26T06:56:32;7.05;;;1.15;;
47021;SDS011;32779;52.264;6.154;2023-02-26T06:58:58;3.58;;;0.65;;
47021;SDS011;32779;52.264;6.154;2023-02-26T07:01:23;5.13;;;1.00;;
47021;SDS011;32779;52.264;6.154;2023-02-26T07:03:49;4.55;;;0.85;;
47021;SDS011;32779;52.264;6.154;2023-02-26T07:06:15;8.52;;;1.10;;
47021;SDS011;32779;52.264;6.154;2023-02-26T07:08:41;3.45;;;1.02;;
47021;SDS011;32779;52.264;6.154;2023-02-26T07:11:07;6.63;;;1.05;;
47021;SDS011;32779;52.264;6.154;2023-02-26T07:13:34;3.22;;;1.25;;
47021;SDS011;32779;52.264;6.154;2023-02-26T07:16:01;6.30;;;1.17;;
47021;SDS011;32779;52.264;6.154;2023-02-26T07:18:34;5.03;;;0.85;;
47021;SDS011;32779;52.264;6.154;2023-02-26T07:21:00;9.30;;;0.88;;
47021;SDS011;32779;52.264;6.154;2023-02-26T07:23:26;8.18;;;0.95;;
47021;SDS011;32779;52.264;6.154;2023-02-26T07:25:52;3.35;;;0.90;;
47021;SDS011;32779;52.264;6.154;2023-02-26T07:28:18;5.00;;;0.90;;
47021;SDS011;32779;52.264;6.154;2023-02-26T07:30:44;4.32;;;0.95;;
47021;SDS011;32779;52.264;6.154;2023-02-26T07:33:10;8.57;;;1.13;;
47021;SDS011;32779;52.264;6.154;2023-02-26T07:35:36;9.55;;;1.20;;
47021;SDS011;32779;52.264;6.154;2023-02-26T07:38:02;5.75;;;1.00;;
47021;SDS011;32779;52.264;6.154;2023-02-26T07:40:28;4.72;;;1.00;;
47021;SDS011;32779;52.264;6.154;2023-02-26T07:42:54;3.97;;;0.85;;
47021;SDS011;32779;52.264;6.154;2023-02-26T07:45:20;11.15;;;1.20;;
47021;SDS011;32779;52.264;6.154;2023-02-26T07:47:50;7.13;;;0.95;;
47021;SDS011;32779;52.264;6.154;2023-02-26T07:50:16;12.57;;;1.30;;
47021;SDS011;32779;52.264;6.154;2023-02-26T07:52:42;6.75;;;1.20;;
47021;SDS011;32779;52.264;6.154;2023-02-26T07:55:08;8.50;;;1.40;;
47021;SDS011;32779;52.264;6.154;2023-02-26T07:57:34;5.22;;;0.90;;
47021;SDS011;32779;52.264;6.154;2023-02-26T08:00:00;5.78;;;1.10;;
47021;SDS011;32779;52.264;6.154;2023-02-26T08:02:26;7.22;;;1.05;;
47021;SDS011;32779;52.264;6.154;2023-02-26T08:04:51;6.70;;;1.40;;
47021;SDS011;32779;52.264;6.154;2023-02-26T08:07:17;6.95;;;1.00;;
47021;SDS011;32779;52.264;6.154;2023-02-26T08:09:43;1.70;;;0.77;;
47021;SDS011;32779;52.264;6.154;2023-02-26T08:12:09;4.70;;;1.10;;
47021;SDS011;32779;52.264;6.154;2023-02-26T08:14:34;4.05;;;1.00;;
47021;SDS011;32779;52.264;6.154;2023-02-26T08:17:00;4.72;;;1.08;;
47021;SDS011;32779;52.264;6.154;2023-02-26T08:19:26;9.57;;;1.07;;
47021;SDS011;32779;52.264;6.154;2023-02-26T08:21:51;2.72;;;0.80;;
47021;SDS011;32779;52.264;6.154;2023-02-26T08:24:19;10.18;;;1.10;;
47021;SDS011;32779;52.264;6.154;2023-02-26T08:26:45;4.45;;;1.73;;
47021;SDS011;32779;52.264;6.154;2023-02-26T08:29:10;3.60;;;1.00;;
47021;SDS011;32779;52.264;6.154;2023-02-26T08:31:36;4.55;;;1.42;;
47021;SDS011;32779;52.264;6.154;2023-02-26T08:34:02;4.70;;;0.88;;
47021;SDS011;32779;52.264;6.154;2023-02-26T08:36:28;8.00;;;1.25;;
47021;SDS011;32779;52.264;6.154;2023-02-26T08:38:54;7.45;;;1.05;;
47021;SDS011;32779;52.264;6.154;2023-02-26T08:41:20;3.00;;;0.90;;
47021;SDS011;32779;52.264;6.154;2023-02-26T08:43:46;6.10;;;1.35;;
47021;SDS011;32779;52.264;6.154;2023-02-26T08:48:38;8.98;;;0.98;;
47021;SDS011;32779;52.264;6.154;2023-02-26T08:51:03;10.35;;;0.90;;
47021;SDS011;32779;52.264;6.154;2023-02-26T08:53:29;9.27;;;1.10;;
47021;SDS011;32779;52.264;6.154;2023-02-26T08:55:55;3.40;;;0.95;;
47021;SDS011;32779;52.264;6.154;2023-02-26T08:58:20;7.95;;;0.98;;
47021;SDS011;32779;52.264;6.154;2023-02-26T09:00:46;6.38;;;1.00;;
47021;SDS011;32779;52.264;6.154;2023-02-26T09:05:38;5.68;;;1.15;;
47021;SDS011;32779;52.264;6.154;2023-02-26T09:10:31;3.42;;;0.85;;
47021;SDS011;32779;52.264;6.154;2023-02-26T09:12:56;7.55;;;0.60;;
47021;SDS011;32779;52.264;6.154;2023-02-26T09:15:22;8.55;;;0.95;;
47021;SDS011;32779;52.264;6.154;2023-02-26T09:17:48;2.60;;;0.60;;
47021;SDS011;32779;52.264;6.154;2023-02-26T09:20:15;2.90;;;0.60;;
47021;SDS011;32779;52.264;6.154;2023-02-26T09:22:41;3.83;;;0.90;;
47021;SDS011;32779;52.264;6.154;2023-02-26T09:25:07;1.42;;;0.43;;
47021;SDS011;32779;52.264;6.154;2023-02-26T09:27:34;5.07;;;0.90;;
47021;SDS011;32779;52.264;6.154;2023-02-26T09:30:00;1.08;;;0.80;;
47021;SDS011;32779;52.264;6.154;2023-02-26T09:32:27;3.47;;;0.63;;
47021;SDS011;32779;52.264;6.154;2023-02-26T09:34:52;2.35;;;0.60;;
47021;SDS011;32779;52.264;6.154;2023-02-26T09:37:18;4.10;;;0.63;;
47021;SDS011;32779;52.264;6.154;2023-02-26T09:39:44;4.15;;;0.50;;
47021;SDS011;32779;52.264;6.154;2023-02-26T09:42:12;5.88;;;0.90;;
47021;SDS011;32779;52.264;6.154;2023-02-26T09:44:43;6.22;;;1.20;;
47021;SDS011;32779;52.264;6.154;2023-02-26T09:49:48;3.80;;;0.70;;
47021;SDS011;32779;52.264;6.154;2023-02-26T09:52:29;3.53;;;0.70;;
47021;SDS011;32779;52.264;6.154;2023-02-26T09:57:58;0.85;;;0.40;;
47021;SDS011;32779;52.264;6.154;2023-02-26T10:00:31;1.83;;;0.60;;
47021;SDS011;32779;52.264;6.154;2023-02-26T10:08:50;6.00;;;0.70;;
47021;SDS011;32779;52.264;6.154;2023-02-26T10:11:30;3.15;;;0.73;;
47021;SDS011;32779;52.264;6.154;2023-02-26T10:14:17;4.78;;;0.60;;
47021;SDS011;32779;52.264;6.154;2023-02-26T10:16:57;3.42;;;0.57;;
47021;SDS011;32779;52.264;6.154;2023-02-26T10:19:29;6.80;;;0.50;;
47021;SDS011;32779;52.264;6.154;2023-02-26T10:22:12;5.65;;;0.75;;
47021;SDS011;32779;52.264;6.154;2023-02-26T10:24:51;2.47;;;0.70;;
47021;SDS011;32779;52.264;6.154;2023-02-26T10:30:09;5.63;;;0.82;;
47021;SDS011;32779;52.264;6.154;2023-02-26T10:35:26;3.15;;;0.70;;
47021;SDS011;32779;52.264;6.154;2023-02-26T10:37:56;5.05;;;1.15;;
47021;SDS011;32779;52.264;6.154;2023-02-26T10:43:07;4.85;;;0.77;;
47021;SDS011;32779;52.264;6.154;2023-02-26T10:45:57;4.72;;;0.85;;
47021;SDS011;32779;52.264;6.154;2023-02-26T10:51:34;1.92;;;0.60;;
47021;SDS011;32779;52.264;6.154;2023-02-26T10:54:15;5.40;;;0.60;;
47021;SDS011;32779;52.264;6.154;2023-02-26T10:56:45;5.47;;;1.13;;
47021;SDS011;32779;52.264;6.154;2023-02-26T10:59:11;2.95;;;0.70;;
47021;SDS011;32779;52.264;6.154;2023-02-26T11:01:37;4.07;;;0.70;;
47021;SDS011;32779;52.264;6.154;2023-02-26T11:04:17;6.95;;;0.98;;
47021;SDS011;32779;52.264;6.154;2023-02-26T11:06:48;3.97;;;0.60;;
47021;SDS011;32779;52.264;6.154;2023-02-26T11:09:21;5.03;;;0.70;;
47021;SDS011;32779;52.264;6.154;2023-02-26T11:11:56;5.50;;;0.60;;
47021;SDS011;32779;52.264;6.154;2023-02-26T11:14:30;6.03;;;0.82;;
47021;SDS011;32779;52.264;6.154;2023-02-26T11:16:57;3.50;;;0.70;;
47021;SDS011;32779;52.264;6.154;2023-02-26T11:19:37;4.85;;;0.70;;
47021;SDS011;32779;52.264;6.154;2023-02-26T11:22:20;3.67;;;0.75;;
47021;SDS011;32779;52.264;6.154;2023-02-26T11:24:47;2.10;;;0.60;;
47021;SDS011;32779;52.264;6.154;2023-02-26T11:27:17;3.25;;;0.50;;
47021;SDS011;32779;52.264;6.154;2023-02-26T11:29:53;5.40;;;1.38;;
47021;SDS011;32779;52.264;6.154;2023-02-26T11:32:31;3.40;;;0.63;;
47021;SDS011;32779;52.264;6.154;2023-02-26T11:34:58;4.40;;;0.98;;
47021;SDS011;32779;52.264;6.154;2023-02-26T11:37:28;1.95;;;0.40;;
47021;SDS011;32779;52.264;6.154;2023-02-26T11:39:59;3.17;;;0.60;;
47021;SDS011;32779;52.264;6.154;2023-02-26T11:42:36;4.30;;;0.52;;
47021;SDS011;32779;52.264;6.154;2023-02-26T11:45:06;2.83;;;0.50;;
47021;SDS011;32779;52.264;6.154;2023-02-26T11:47:32;3.10;;;0.50;;
47021;SDS011;32779;52.264;6.154;2023-02-26T11:50:03;2.25;;;0.57;;
47021;SDS011;32779;52.264;6.154;2023-02-26T11:52:41;4.32;;;0.70;;
47021;SDS011;32779;52.264;6.154;2023-02-26T11:55:27;5.00;;;0.88;;
47021;SDS011;32779;52.264;6.154;2023-02-26T11:57:56;2.03;;;0.47;;
47021;SDS011;32779;52.264;6.154;2023-02-26T12:00:32;2.42;;;0.65;;
47021;SDS011;32779;52.264;6.154;2023-02-26T12:03:03;3.38;;;0.50;;
47021;SDS011;32779;52.264;6.154;2023-02-26T12:05:32;3.38;;;0.65;;
47021;SDS011;32779;52.264;6.154;2023-02-26T12:07:58;1.67;;;0.50;;
47021;SDS011;32779;52.264;6.154;2023-02-26T12:14:00;1.92;;;0.55;;
47021;SDS011;32779;52.264;6.154;2023-02-26T12:25:04;2.13;;;0.50;;
47021;SDS011;32779;52.264;6.154;2023-02-26T12:41:02;4.18;;;0.60;;
47021;SDS011;32779;52.264;6.154;2023-02-26T12:44:15;1.85;;;0.65;;
47021;SDS011;32779;52.264;6.154;2023-02-26T12:49:01;2.83;;;0.70;;
47021;SDS011;32779;52.264;6.154;2023-02-26T12:54:20;3.85;;;0.80;;
47021;SDS011;32779;52.264;6.154;2023-02-26T12:57:13;5.18;;;0.60;;
47021;SDS011;32779;52.264;6.154;2023-02-26T13:00:12;3.00;;;0.63;;
47021;SDS011;32779;52.264;6.154;2023-02-26T13:06:10;0.88;;;0.50;;
47021;SDS011;32779;52.264;6.154;2023-02-26T13:09:01;4.60;;;0.70;;
47021;SDS011;32779;52.264;6.154;2023-02-26T13:12:00;1.52;;;0.75;;
47021;SDS011;32779;52.264;6.154;2023-02-26T13:19:46;3.35;;;0.80;;
47021;SDS011;32779;52.264;6.154;2023-02-26T13:22:50;3.00;;;0.75;;
47021;SDS011;32779;52.264;6.154;2023-02-26T13:25:22;3.20;;;0.50;;
47021;SDS011;32779;52.264;6.154;2023-02-26T13:27:56;1.58;;;0.50;;
47021;SDS011;32779;52.264;6.154;2023-02-26T13:30:28;1.67;;;0.65;;
47021;SDS011;32779;52.264;6.154;2023-02-26T13:32:56;3.42;;;0.80;;
47021;SDS011;32779;52.264;6.154;2023-02-26T13:35:36;3.85;;;0.85;;
47021;SDS011;32779;52.264;6.154;2023-02-26T13:38:23;2.20;;;0.55;;
47021;SDS011;32779;52.264;6.154;2023-02-26T13:52:48;3.25;;;0.45;;
47021;SDS011;32779;52.264;6.154;2023-02-26T13:55:41;2.58;;;0.60;;
47021;SDS011;32779;52.264;6.154;2023-02-26T13:59:01;2.00;;;0.60;;
47021;SDS011;32779;52.264;6.154;2023-02-26T14:06:42;2.40;;;0.50;;
47021;SDS011;32779;52.264;6.154;2023-02-26T14:19:36;2.10;;;0.50;;
47021;SDS011;32779;52.264;6.154;2023-02-26T14:22:16;2.42;;;0.70;;
47021;SDS011;32779;52.264;6.154;2023-02-26T14:27:35;1.20;;;0.32;;
47021;SDS011;32779;52.264;6.154;2023-02-26T14:32:44;1.75;;;0.73;;
47021;SDS011;32779;52.264;6.154;2023-02-26T14:35:22;1.08;;;0.45;;
47021;SDS011;32779;52.264;6.154;2023-02-26T14:37:57;1.25;;;0.73;;
47021;SDS011;32779;52.264;6.154;2023-02-26T14:40:23;1.48;;;0.50;;
47021;SDS011;32779;52.264;6.154;2023-02-26T14:45:35;2.58;;;0.88;;
47021;SDS011;32779;52.264;6.154;2023-02-26T14:48:03;1.13;;;0.50;;
47021;SDS011;32779;52.264;6.154;2023-02-26T14:50:45;2.47;;;0.60;;
47021;SDS011;32779;52.264;6.154;2023-02-26T15:04:31;1.92;;;0.40;;
47021;SDS011;32779;52.264;6.154;2023-02-26T15:07:28;1.55;;;0.43;;
47021;SDS011;32779;52.264;6.154;2023-02-26T15:13:22;1.92;;;0.90;;
47021;SDS011;32779;52.264;6.154;2023-02-26T15:18:49;5.43;;;0.70;;
47021;SDS011;32779;52.264;6.154;2023-02-26T15:21:24;2.67;;;0.50;;
47021;SDS011;32779;52.264;6.154;2023-02-26T15:24:00;4.68;;;0.50;;
47021;SDS011;32779;52.264;6.154;2023-02-26T15:26:28;2.33;;;0.50;;
47021;SDS011;32779;52.264;6.154;2023-02-26T15:28:57;0.82;;;0.40;;
47021;SDS011;32779;52.264;6.154;2023-02-26T15:31:33;2.85;;;0.77;;
47021;SDS011;32779;52.264;6.154;2023-02-26T15:34:01;1.95;;;0.50;;
47021;SDS011;32779;52.264;6.154;2023-02-26T15:36:28;3.20;;;0.90;;
47021;SDS011;32779;52.264;6.154;2023-02-26T15:38:56;1.63;;;0.55;;
47021;SDS011;32779;52.264;6.154;2023-02-26T15:41:24;1.95;;;0.50;;
47021;SDS011;32779;52.264;6.154;2023-02-26T15:43:53;3.25;;;0.63;;
47021;SDS011;32779;52.264;6.154;2023-02-26T15:46:28;0.98;;;0.40;;
47021;SDS011;32779;52.264;6.154;2023-02-26T15:48:59;2.22;;;0.50;;
47021;SDS011;32779;52.264;6.154;2023-02-26T15:51:44;1.25;;;0.30;;
47021;SDS011;32779;52.264;6.154;2023-02-26T15:54:18;2.58;;;0.50;;
47021;SDS011;32779;52.264;6.154;2023-02-26T15:56:47;3.13;;;0.50;;
47021;SDS011;32779;52.264;6.154;2023-02-26T15:59:21;4.35;;;0.65;;
47021;SDS011;32779;52.264;6.154;2023-02-26T16:01:54;3.45;;;0.70;;
47021;SDS011;32779;52.264;6.154;2023-02-26T16:04:20;1.60;;;0.50;;
47021;SDS011;32779;52.264;6.154;2023-02-26T16:06:48;1.80;;;0.60;;
47021;SDS011;32779;52.264;6.154;2023-02-26T16:09:24;7.32;;;1.02;;
47021;SDS011;32779;52.264;6.154;2023-02-26T16:11:52;1.00;;;0.30;;
47021;SDS011;32779;52.264;6.154;2023-02-26T16:14:22;2.05;;;0.52;;
47021;SDS011;32779;52.264;6.154;2023-02-26T16:16:52;2.70;;;0.80;;
47021;SDS011;32779;52.264;6.154;2023-02-26T16:19:33;6.65;;;0.98;;
47021;SDS011;32779;52.264;6.154;2023-02-26T16:27:53;3.08;;;0.77;;
47021;SDS011;32779;52.264;6.154;2023-02-26T16:30:25;5.32;;;0.77;;
47021;SDS011;32779;52.264;6.154;2023-02-26T16:33:01;6.20;;;0.82;;
47021;SDS011;32779;52.264;6.154;2023-02-26T16:35:31;2.50;;;0.55;;
47021;SDS011;32779;52.264;6.154;2023-02-26T16:38:16;5.63;;;1.20;;
47021;SDS011;32779;52.264;6.154;2023-02-26T16:40:44;10.27;;;1.00;;
47021;SDS011;32779;52.264;6.154;2023-02-26T16:46:14;3.25;;;1.30;;
47021;SDS011;32779;52.264;6.154;2023-02-26T16:48:48;9.50;;;1.45;;
47021;SDS011;32779;52.264;6.154;2023-02-26T16:51:35;2.63;;;1.58;;
47021;SDS011;32779;52.264;6.154;2023-02-26T16:54:05;5.78;;;1.00;;
47021;SDS011;32779;52.264;6.154;2023-02-26T16:56:38;4.50;;;1.02;;
47021;SDS011;32779;52.264;6.154;2023-02-26T16:59:24;6.32;;;1.10;;
47021;SDS011;32779;52.264;6.154;2023-02-26T17:01:55;7.47;;;1.00;;
47021;SDS011;32779;52.264;6.154;2023-02-26T17:04:43;3.92;;;0.75;;
47021;SDS011;32779;52.264;6.154;2023-02-26T17:07:29;9.82;;;1.35;;
47021;SDS011;32779;52.264;6.154;2023-02-26T17:10:07;4.10;;;0.77;;
47021;SDS011;32779;52.264;6.154;2023-02-26T17:12:44;4.90;;;0.85;;
47021;SDS011;32779;52.264;6.154;2023-02-26T17:15:20;11.38;;;1.70;;
47021;SDS011;32779;52.264;6.154;2023-02-26T17:17:53;7.57;;;1.10;;
47021;SDS011;32779;52.264;6.154;2023-02-26T17:20:23;3.75;;;1.17;;
47021;SDS011;32779;52.264;6.154;2023-02-26T17:22:49;7.28;;;1.40;;
47021;SDS011;32779;52.264;6.154;2023-02-26T17:25:16;3.42;;;1.20;;
47021;SDS011;32779;52.264;6.154;2023-02-26T17:27:43;4.47;;;1.38;;
47021;SDS011;32779;52.264;6.154;2023-02-26T17:30:14;8.10;;;2.13;;
47021;SDS011;32779;52.264;6.154;2023-02-26T17:32:42;7.65;;;2.30;;
47021;SDS011;32779;52.264;6.154;2023-02-26T17:35:10;5.95;;;1.00;;
47021;SDS011;32779;52.264;6.154;2023-02-26T17:37:37;6.25;;;1.88;;
47021;SDS011;32779;52.264;6.154;2023-02-26T17:42:39;6.10;;;1.27;;
47021;SDS011;32779;52.264;6.154;2023-02-26T17:45:04;8.00;;;1.00;;
47021;SDS011;32779;52.264;6.154;2023-02-26T17:47:30;4.20;;;1.13;;
47021;SDS011;32779;52.264;6.154;2023-02-26T17:49:56;9.15;;;1.23;;
47021;SDS011;32779;52.264;6.154;2023-02-26T17:52:21;5.63;;;0.90;;
47021;SDS011;32779;52.264;6.154;2023-02-26T17:54:47;3.65;;;1.30;;
47021;SDS011;32779;52.264;6.154;2023-02-26T17:57:15;5.40;;;1.10;;
47021;SDS011;32779;52.264;6.154;2023-02-26T17:59:43;7.10;;;1.00;;
47021;SDS011;32779;52.264;6.154;2023-02-26T18:02:17;6.82;;;1.02;;
47021;SDS011;32779;52.264;6.154;2023-02-26T18:04:47;6.80;;;0.90;;
47021;SDS011;32779;52.264;6.154;2023-02-26T18:07:13;7.28;;;1.13;;
47021;SDS011;32779;52.264;6.154;2023-02-26T18:09:40;10.45;;;1.20;;